sensor_id;sensor_type;location;lat;lon;timestamp;temperature;humidity
48604;DHT22;32708;51.212;6.788;2023-11-21T00:00:00;10.30;99.90
48604;DHT22;32708;51.212;6.788;2023-11-21T00:02:26;10.20;99.90
48604;DHT22;32708;51.212;6.788;2023-11-21T00:04:54;10.20;99.90
48604;DHT22;32708;51.212;6.788;2023-11-21T00:07:20;9.90;99.90
48604;DHT22;32708;51.212;6.788;2023-11-21T00:09:47;10.20;99.90
48604;DHT22;32708;51.212;6.788;2023-11-21T00:12:14;10.20;99.90
48604;DHT22;32708;51.212;6.788;2023-11-21T00:14:40;10.30;99.90
48604;DHT22;32708;51.212;6.788;2023-11-21T00:17:06;10.20;99.90
48604;DHT22;32708;51.212;6.788;2023-11-21T00:19:33;10.30;99.90
48604;DHT22;32708;51.212;6.788;2023-11-21T00:22:00;10.40;99.90
48604;DHT22;32708;51.212;6.788;2023-11-21T00:24:26;10.40;99.90
48604;DHT22;32708;51.212;6.788;2023-11-21T00:26:52;10.30;99.90
48604;DHT22;32708;51.212;6.788;2023-11-21T00:29:19;10.40;99.90
48604;DHT22;32708;51.212;6.788;2023-11-21T00:31:45;10.20;99.90
48604;DHT22;32708;51.212;6.788;2023-11-21T00:34:12;10.20;99.90
48604;DHT22;32708;51.212;6.788;2023-11-21T00:36:38;10.30;99.90
48604;DHT22;32708;51.212;6.788;2023-11-21T00:39:04;10.40;99.90
48604;DHT22;32708;51.212;6.788;2023-11-21T00:41:38;10.20;99.90
48604;DHT22;32708;51.212;6.788;2023-11-21T00:44:04;10.10;99.90
48604;DHT22;32708;51.212;6.788;2023-11-21T00:46:35;10.20;99.90
48604;DHT22;32708;51.212;6.788;2023-11-21T00:49:02;10.40;99.90
48604;DHT22;32708;51.212;6.788;2023-11-21T00:51:31;10.40;99.90
48604;DHT22;32708;51.212;6.788;2023-11-21T00:53:59;10.20;99.90
48604;DHT22;32708;51.212;6.788;2023-11-21T00:56:25;10.20;99.90
48604;DHT22;32708;51.212;6.788;2023-11-21T00:58:51;10.20;99.90
48604;DHT22;32708;51.212;6.788;2023-11-21T01:01:18;10.20;99.90
48604;DHT22;32708;51.212;6.788;2023-11-21T01:03:49;10.20;99.90
48604;DHT22;32708;51.212;6.788;2023-11-21T01:06:16;10.50;99.90
48604;DHT22;32708;51.212;6.788;2023-11-21T01:08:43;10.10;99.90
48604;DHT22;32708;51.212;6.788;2023-11-21T01:11:10;10.20;99.90
48604;DHT22;32708;51.212;6.788;2023-11-21T01:13:41;10.20;99.90
48604;DHT22;32708;51.212;6.788;2023-11-21T01:16:08;10.10;99.90
48604;DHT22;32708;51.212;6.788;2023-11-21T01:18:38;10.00;99.90
48604;DHT22;32708;51.212;6.788;2023-11-21T01:21:05;10.00;99.90
48604;DHT22;32708;51.212;6.788;2023-11-21T01:23:33;9.90;99.90
48604;DHT22;32708;51.212;6.788;2023-11-21T01:25:59;9.80;99.90
48604;DHT22;32708;51.212;6.788;2023-11-21T01:28:25;9.80;99.90
48604;DHT22;32708;51.212;6.788;2023-11-21T01:30:52;9.80;99.90
48604;DHT22;32708;51.212;6.788;2023-11-21T01:33:27;9.90;99.90
48604;DHT22;32708;51.212;6.788;2023-11-21T01:35:53;9.70;99.90
48604;DHT22;32708;51.212;6.788;2023-11-21T01:38:21;9.80;99.90
48604;DHT22;32708;51.212;6.788;2023-11-21T01:40:48;9.70;99.90
48604;DHT22;32708;51.212;6.788;2023-11-21T01:43:14;9.70;99.90
48604;DHT22;32708;51.212;6.788;2023-11-21T01:45:41;9.70;99.90
48604;DHT22;32708;51.212;6.788;2023-11-21T01:48:07;9.70;99.90
48604;DHT22;32708;51.212;6.788;2023-11-21T01:50:35;9.70;99.90
48604;DHT22;32708;51.212;6.788;2023-11-21T01:53:02;9.80;99.90
48604;DHT22;32708;51.212;6.788;2023-11-21T01:55:29;9.80;99.90
48604;DHT22;32708;51.212;6.788;2023-11-21T01:57:57;9.80;99.90
48604;DHT22;32708;51.212;6.788;2023-11-21T02:00:24;9.80;99.90
48604;DHT22;32708;51.212;6.788;2023-11-21T02:02:51;9.90;99.90
48604;DHT22;32708;51.212;6.788;2023-11-21T02:05:19;9.90;99.90
48604;DHT22;32708;51.212;6.788;2023-11-21T02:07:46;10.00;99.90
48604;DHT22;32708;51.212;6.788;2023-11-21T02:10:15;9.90;99.90
48604;DHT22;32708;51.212;6.788;2023-11-21T02:12:43;10.10;99.90
48604;DHT22;32708;51.212;6.788;2023-11-21T02:15:14;10.00;99.90
48604;DHT22;32708;51.212;6.788;2023-11-21T02:17:47;10.00;99.90
48604;DHT22;32708;51.212;6.788;2023-11-21T02:20:18;10.00;99.90
48604;DHT22;32708;51.212;6.788;2023-11-21T02:22:49;10.00;99.90
48604;DHT22;32708;51.212;6.788;2023-11-21T02:25:29;10.00;99.90
48604;DHT22;32708;51.212;6.788;2023-11-21T02:27:58;10.00;99.90
48604;DHT22;32708;51.212;6.788;2023-11-21T02:30:27;10.00;99.90
48604;DHT22;32708;51.212;6.788;2023-11-21T02:32:55;10.00;99.90
48604;DHT22;32708;51.212;6.788;2023-11-21T02:35:23;10.10;99.90
48604;DHT22;32708;51.212;6.788;2023-11-21T02:37:53;10.10;99.90
48604;DHT22;32708;51.212;6.788;2023-11-21T02:40:19;10.10;99.90
48604;DHT22;32708;51.212;6.788;2023-11-21T02:42:51;10.10;99.90
48604;DHT22;32708;51.212;6.788;2023-11-21T02:45:18;10.10;99.90
48604;DHT22;32708;51.212;6.788;2023-11-21T02:47:47;10.10;99.90
48604;DHT22;32708;51.212;6.788;2023-11-21T02:50:15;10.10;99.90
48604;DHT22;32708;51.212;6.788;2023-11-21T02:52:41;10.10;99.90
48604;DHT22;32708;51.212;6.788;2023-11-21T02:55:08;10.00;99.90
48604;DHT22;32708;51.212;6.788;2023-11-21T02:57:34;10.10;99.90
48604;DHT22;32708;51.212;6.788;2023-11-21T03:00:00;10.10;99.90
48604;DHT22;32708;51.212;6.788;2023-11-21T03:02:26;10.00;99.90
48604;DHT22;32708;51.212;6.788;2023-11-21T03:04:52;10.10;99.90
48604;DHT22;32708;51.212;6.788;2023-11-21T03:07:19;10.10;99.90
48604;DHT22;32708;51.212;6.788;2023-11-21T03:09:45;10.00;99.90
48604;DHT22;32708;51.212;6.788;2023-11-21T03:12:12;10.10;99.90
48604;DHT22;32708;51.212;6.788;2023-11-21T03:14:39;9.80;99.90
48604;DHT22;32708;51.212;6.788;2023-11-21T03:17:05;10.00;99.90
48604;DHT22;32708;51.212;6.788;2023-11-21T03:19:32;10.10;99.90
48604;DHT22;32708;51.212;6.788;2023-11-21T03:21:58;10.00;99.90
48604;DHT22;32708;51.212;6.788;2023-11-21T03:24:25;10.00;99.90
48604;DHT22;32708;51.212;6.788;2023-11-21T03:26:52;10.20;99.90
48604;DHT22;32708;51.212;6.788;2023-11-21T03:29:18;10.10;99.90
48604;DHT22;32708;51.212;6.788;2023-11-21T03:31:44;10.10;99.90
48604;DHT22;32708;51.212;6.788;2023-11-21T03:34:19;10.00;99.90
48604;DHT22;32708;51.212;6.788;2023-11-21T03:36:49;10.10;99.90
48604;DHT22;32708;51.212;6.788;2023-11-21T03:39:15;10.10;99.90
48604;DHT22;32708;51.212;6.788;2023-11-21T03:41:41;10.10;99.90
48604;DHT22;32708;51.212;6.788;2023-11-21T03:44:07;10.20;99.90
48604;DHT22;32708;51.212;6.788;2023-11-21T03:46:34;10.10;99.90
48604;DHT22;32708;51.212;6.788;2023-11-21T03:49:00;10.40;99.90
48604;DHT22;32708;51.212;6.788;2023-11-21T03:51:26;10.10;99.90
48604;DHT22;32708;51.212;6.788;2023-11-21T03:53:52;10.10;99.90
48604;DHT22;32708;51.212;6.788;2023-11-21T03:56:18;10.00;99.90
48604;DHT22;32708;51.212;6.788;2023-11-21T03:58:48;10.10;99.90
48604;DHT22;32708;51.212;6.788;2023-11-21T04:01:24;10.10;99.90
48604;DHT22;32708;51.212;6.788;2023-11-21T04:03:51;10.10;99.90
48604;DHT22;32708;51.212;6.788;2023-11-21T04:06:17;10.10;99.90
48604;DHT22;32708;51.212;6.788;2023-11-21T04:08:44;10.10;99.90
48604;DHT22;32708;51.212;6.788;2023-11-21T04:11:12;10.00;99.90
48604;DHT22;32708;51.212;6.788;2023-11-21T04:13:39;10.00;99.90
48604;DHT22;32708;51.212;6.788;2023-11-21T04:16:09;10.00;99.90
48604;DHT22;32708;51.212;6.788;2023-11-21T04:18:36;10.00;99.90
48604;DHT22;32708;51.212;6.788;2023-11-21T04:21:07;10.00;99.90
48604;DHT22;32708;51.212;6.788;2023-11-21T04:23:34;10.00;99.90
48604;DHT22;32708;51.212;6.788;2023-11-21T04:26:01;10.00;99.90
48604;DHT22;32708;51.212;6.788;2023-11-21T04:28:28;10.40;99.90
48604;DHT22;32708;51.212;6.788;2023-11-21T04:30:54;10.00;99.90
48604;DHT22;32708;51.212;6.788;2023-11-21T04:33:20;9.90;99.90
48604;DHT22;32708;51.212;6.788;2023-11-21T04:35:47;9.90;99.90
48604;DHT22;32708;51.212;6.788;2023-11-21T04:38:14;9.90;99.90
48604;DHT22;32708;51.212;6.788;2023-11-21T04:40:40;9.90;99.90
48604;DHT22;32708;51.212;6.788;2023-11-21T04:43:06;9.90;99.90
48604;DHT22;32708;51.212;6.788;2023-11-21T04:45:32;10.00;99.90
48604;DHT22;32708;51.212;6.788;2023-11-21T04:47:58;10.00;99.90
48604;DHT22;32708;51.212;6.788;2023-11-21T04:50:24;9.90;99.90
48604;DHT22;32708;51.212;6.788;2023-11-21T04:52:52;10.00;99.90
48604;DHT22;32708;51.212;6.788;2023-11-21T04:55:19;10.00;99.90
48604;DHT22;32708;51.212;6.788;2023-11-21T04:57:45;10.10;99.90
48604;DHT22;32708;51.212;6.788;2023-11-21T05:00:13;10.50;99.90
48604;DHT22;32708;51.212;6.788;2023-11-21T05:02:42;10.10;99.90
48604;DHT22;32708;51.212;6.788;2023-11-21T05:05:09;10.10;99.90
48604;DHT22;32708;51.212;6.788;2023-11-21T05:07:36;10.10;99.90
48604;DHT22;32708;51.212;6.788;2023-11-21T05:10:05;10.00;99.90
48604;DHT22;32708;51.212;6.788;2023-11-21T05:12:37;10.00;99.90
48604;DHT22;32708;51.212;6.788;2023-11-21T05:15:04;10.10;99.90
48604;DHT22;32708;51.212;6.788;2023-11-21T05:17:34;10.10;99.90
48604;DHT22;32708;51.212;6.788;2023-11-21T05:20:01;10.10;99.90
48604;DHT22;32708;51.212;6.788;2023-11-21T05:22:30;10.00;99.90
48604;DHT22;32708;51.212;6.788;2023-11-21T05:24:56;10.10;99.90
48604;DHT22;32708;51.212;6.788;2023-11-21T05:27:25;10.20;99.90
48604;DHT22;32708;51.212;6.788;2023-11-21T05:29:51;10.10;99.90
48604;DHT22;32708;51.212;6.788;2023-11-21T05:32:18;10.00;99.90
48604;DHT22;32708;51.212;6.788;2023-11-21T05:34:44;10.00;99.90
48604;DHT22;32708;51.212;6.788;2023-11-21T05:37:10;10.00;99.90
48604;DHT22;32708;51.212;6.788;2023-11-21T05:39:36;10.10;99.90
48604;DHT22;32708;51.212;6.788;2023-11-21T05:42:02;10.10;99.90
48604;DHT22;32708;51.212;6.788;2023-11-21T05:44:29;10.00;99.90
48604;DHT22;32708;51.212;6.788;2023-11-21T05:46:55;10.20;99.90
48604;DHT22;32708;51.212;6.788;2023-11-21T05:49:24;10.10;99.90
48604;DHT22;32708;51.212;6.788;2023-11-21T05:51:53;10.10;99.90
48604;DHT22;32708;51.212;6.788;2023-11-21T05:54:20;10.40;99.90
48604;DHT22;32708;51.212;6.788;2023-11-21T05:56:46;10.10;99.90
48604;DHT22;32708;51.212;6.788;2023-11-21T05:59:13;10.10;99.90
48604;DHT22;32708;51.212;6.788;2023-11-21T06:01:39;10.20;99.90
48604;DHT22;32708;51.212;6.788;2023-11-21T06:04:05;10.10;99.90
48604;DHT22;32708;51.212;6.788;2023-11-21T06:06:33;10.40;99.90
48604;DHT22;32708;51.212;6.788;2023-11-21T06:09:00;10.00;99.90
48604;DHT22;32708;51.212;6.788;2023-11-21T06:11:26;10.10;99.90
48604;DHT22;32708;51.212;6.788;2023-11-21T06:13:52;10.10;99.90
48604;DHT22;32708;51.212;6.788;2023-11-21T06:16:21;10.10;99.90
48604;DHT22;32708;51.212;6.788;2023-11-21T06:18:47;10.00;99.90
48604;DHT22;32708;51.212;6.788;2023-11-21T06:21:14;10.10;99.90
48604;DHT22;32708;51.212;6.788;2023-11-21T06:23:42;10.00;99.90
48604;DHT22;32708;51.212;6.788;2023-11-21T06:26:08;10.00;99.90
48604;DHT22;32708;51.212;6.788;2023-11-21T06:28:35;10.00;99.90
48604;DHT22;32708;51.212;6.788;2023-11-21T06:31:04;10.00;99.90
48604;DHT22;32708;51.212;6.788;2023-11-21T06:33:31;10.00;99.90
48604;DHT22;32708;51.212;6.788;2023-11-21T06:35:58;10.10;99.90
48604;DHT22;32708;51.212;6.788;2023-11-21T06:38:24;10.10;99.90
48604;DHT22;32708;51.212;6.788;2023-11-21T06:40:53;10.10;99.90
48604;DHT22;32708;51.212;6.788;2023-11-21T06:43:20;10.10;99.90
48604;DHT22;32708;51.212;6.788;2023-11-21T06:45:48;10.20;99.90
48604;DHT22;32708;51.212;6.788;2023-11-21T06:48:14;10.10;99.90
48604;DHT22;32708;51.212;6.788;2023-11-21T06:50:41;9.90;99.90
48604;DHT22;32708;51.212;6.788;2023-11-21T06:53:07;9.80;99.90
48604;DHT22;32708;51.212;6.788;2023-11-21T06:55:35;9.90;99.90
48604;DHT22;32708;51.212;6.788;2023-11-21T06:58:02;9.80;99.90
48604;DHT22;32708;51.212;6.788;2023-11-21T07:00:29;9.80;99.90
48604;DHT22;32708;51.212;6.788;2023-11-21T07:02:55;9.70;99.90
48604;DHT22;32708;51.212;6.788;2023-11-21T07:05:22;9.80;99.90
48604;DHT22;32708;51.212;6.788;2023-11-21T07:07:49;9.70;99.90
48604;DHT22;32708;51.212;6.788;2023-11-21T07:10:16;9.90;99.90
48604;DHT22;32708;51.212;6.788;2023-11-21T07:12:42;9.80;99.90
48604;DHT22;32708;51.212;6.788;2023-11-21T07:15:09;9.90;99.90
48604;DHT22;32708;51.212;6.788;2023-11-21T07:17:35;9.90;99.90
48604;DHT22;32708;51.212;6.788;2023-11-21T07:20:03;9.80;99.90
48604;DHT22;32708;51.212;6.788;2023-11-21T07:22:31;9.80;99.90
48604;DHT22;32708;51.212;6.788;2023-11-21T07:24:57;9.90;99.90
48604;DHT22;32708;51.212;6.788;2023-11-21T07:27:23;9.70;99.90
48604;DHT22;32708;51.212;6.788;2023-11-21T07:29:50;9.70;99.90
48604;DHT22;32708;51.212;6.788;2023-11-21T07:32:16;9.70;99.90
48604;DHT22;32708;51.212;6.788;2023-11-21T07:34:42;9.80;99.90
48604;DHT22;32708;51.212;6.788;2023-11-21T07:37:08;9.90;99.90
48604;DHT22;32708;51.212;6.788;2023-11-21T07:39:35;10.00;99.90
48604;DHT22;32708;51.212;6.788;2023-11-21T07:42:02;10.00;99.90
48604;DHT22;32708;51.212;6.788;2023-11-21T07:44:30;10.00;99.90
48604;DHT22;32708;51.212;6.788;2023-11-21T07:46:56;10.00;99.90
48604;DHT22;32708;51.212;6.788;2023-11-21T07:49:24;10.00;99.90
48604;DHT22;32708;51.212;6.788;2023-11-21T07:51:50;9.90;99.90
48604;DHT22;32708;51.212;6.788;2023-11-21T07:54:17;9.80;99.90
48604;DHT22;32708;51.212;6.788;2023-11-21T07:56:43;9.80;99.90
48604;DHT22;32708;51.212;6.788;2023-11-21T07:59:09;10.00;99.90
48604;DHT22;32708;51.212;6.788;2023-11-21T08:01:36;10.00;99.90
48604;DHT22;32708;51.212;6.788;2023-11-21T08:04:02;10.00;99.90
48604;DHT22;32708;51.212;6.788;2023-11-21T08:06:30;10.00;99.90
48604;DHT22;32708;51.212;6.788;2023-11-21T08:08:57;9.80;99.90
48604;DHT22;32708;51.212;6.788;2023-11-21T08:11:23;9.90;99.90
48604;DHT22;32708;51.212;6.788;2023-11-21T08:13:49;9.90;99.90
48604;DHT22;32708;51.212;6.788;2023-11-21T08:16:15;10.00;99.90
48604;DHT22;32708;51.212;6.788;2023-11-21T08:18:42;9.90;99.90
48604;DHT22;32708;51.212;6.788;2023-11-21T08:21:09;9.90;99.90
48604;DHT22;32708;51.212;6.788;2023-11-21T08:23:35;9.80;99.90
48604;DHT22;32708;51.212;6.788;2023-11-21T08:26:01;9.90;99.90
48604;DHT22;32708;51.212;6.788;2023-11-21T08:28:29;9.90;99.90
48604;DHT22;32708;51.212;6.788;2023-11-21T08:30:55;10.00;99.90
48604;DHT22;32708;51.212;6.788;2023-11-21T08:33:21;10.10;99.90
48604;DHT22;32708;51.212;6.788;2023-11-21T08:35:47;10.10;99.90
48604;DHT22;32708;51.212;6.788;2023-11-21T08:38:14;10.10;99.90
48604;DHT22;32708;51.212;6.788;2023-11-21T08:40:40;10.30;99.90
48604;DHT22;32708;51.212;6.788;2023-11-21T08:43:06;10.30;99.90
48604;DHT22;32708;51.212;6.788;2023-11-21T08:45:34;10.30;99.90
48604;DHT22;32708;51.212;6.788;2023-11-21T08:48:01;10.30;99.90
48604;DHT22;32708;51.212;6.788;2023-11-21T08:50:27;10.40;99.90
48604;DHT22;32708;51.212;6.788;2023-11-21T08:52:54;10.30;99.90
48604;DHT22;32708;51.212;6.788;2023-11-21T08:55:21;10.30;99.90
48604;DHT22;32708;51.212;6.788;2023-11-21T08:57:48;10.20;99.90
48604;DHT22;32708;51.212;6.788;2023-11-21T09:00:14;10.20;99.90
48604;DHT22;32708;51.212;6.788;2023-11-21T09:02:43;10.20;99.90
48604;DHT22;32708;51.212;6.788;2023-11-21T09:05:14;10.30;99.90
48604;DHT22;32708;51.212;6.788;2023-11-21T09:07:42;10.20;99.90
48604;DHT22;32708;51.212;6.788;2023-11-21T09:10:09;10.20;99.90
48604;DHT22;32708;51.212;6.788;2023-11-21T09:12:37;10.20;99.90
48604;DHT22;32708;51.212;6.788;2023-11-21T09:15:08;10.20;99.90
48604;DHT22;32708;51.212;6.788;2023-11-21T09:17:35;10.30;99.90
48604;DHT22;32708;51.212;6.788;2023-11-21T09:20:02;10.40;99.90
48604;DHT22;32708;51.212;6.788;2023-11-21T09:22:32;10.40;99.90
48604;DHT22;32708;51.212;6.788;2023-11-21T09:24:58;10.50;99.90
48604;DHT22;32708;51.212;6.788;2023-11-21T09:27:25;10.50;99.90
48604;DHT22;32708;51.212;6.788;2023-11-21T09:29:54;10.50;99.90
48604;DHT22;32708;51.212;6.788;2023-11-21T09:32:21;10.60;99.90
48604;DHT22;32708;51.212;6.788;2023-11-21T09:34:50;10.50;99.90
48604;DHT22;32708;51.212;6.788;2023-11-21T09:37:17;10.50;99.90
48604;DHT22;32708;51.212;6.788;2023-11-21T09:39:43;10.60;99.90
48604;DHT22;32708;51.212;6.788;2023-11-21T09:42:21;10.60;99.90
48604;DHT22;32708;51.212;6.788;2023-11-21T09:45:05;10.50;99.90
48604;DHT22;32708;51.212;6.788;2023-11-21T09:47:38;10.50;99.90
48604;DHT22;32708;51.212;6.788;2023-11-21T09:50:06;10.60;99.90
48604;DHT22;32708;51.212;6.788;2023-11-21T09:55:28;10.70;99.90
48604;DHT22;32708;51.212;6.788;2023-11-21T09:58:03;10.70;99.90
48604;DHT22;32708;51.212;6.788;2023-11-21T10:00:34;10.60;99.90
48604;DHT22;32708;51.212;6.788;2023-11-21T10:03:01;10.70;99.90
48604;DHT22;32708;51.212;6.788;2023-11-21T10:05:28;10.80;99.90
48604;DHT22;32708;51.212;6.788;2023-11-21T10:07:56;10.90;99.90
48604;DHT22;32708;51.212;6.788;2023-11-21T10:10:24;10.90;99.90
48604;DHT22;32708;51.212;6.788;2023-11-21T10:12:56;10.90;99.90
48604;DHT22;32708;51.212;6.788;2023-11-21T10:15:24;11.00;99.90
48604;DHT22;32708;51.212;6.788;2023-11-21T10:17:55;11.00;99.90
48604;DHT22;32708;51.212;6.788;2023-11-21T10:20:23;11.00;99.90
48604;DHT22;32708;51.212;6.788;2023-11-21T10:22:51;11.10;99.90
48604;DHT22;32708;51.212;6.788;2023-11-21T10:25:18;10.90;99.90
48604;DHT22;32708;51.212;6.788;2023-11-21T10:27:48;10.90;99.90
48604;DHT22;32708;51.212;6.788;2023-11-21T10:30:18;10.80;99.90
48604;DHT22;32708;51.212;6.788;2023-11-21T10:32:47;10.70;99.90
48604;DHT22;32708;51.212;6.788;2023-11-21T10:35:13;10.70;99.90
48604;DHT22;32708;51.212;6.788;2023-11-21T10:37:40;10.80;99.90
48604;DHT22;32708;51.212;6.788;2023-11-21T10:40:10;10.90;99.90
48604;DHT22;32708;51.212;6.788;2023-11-21T10:42:41;10.90;99.90
48604;DHT22;32708;51.212;6.788;2023-11-21T10:45:08;10.80;99.90
48604;DHT22;32708;51.212;6.788;2023-11-21T10:47:44;10.90;99.90
48604;DHT22;32708;51.212;6.788;2023-11-21T10:50:11;10.90;99.90
48604;DHT22;32708;51.212;6.788;2023-11-21T10:52:39;11.10;99.90
48604;DHT22;32708;51.212;6.788;2023-11-21T10:55:19;11.00;99.90
48604;DHT22;32708;51.212;6.788;2023-11-21T10:57:54;11.00;99.90
48604;DHT22;32708;51.212;6.788;2023-11-21T11:00:24;10.90;99.90
48604;DHT22;32708;51.212;6.788;2023-11-21T11:02:53;10.90;99.90
48604;DHT22;32708;51.212;6.788;2023-11-21T11:05:24;11.00;99.90
48604;DHT22;32708;51.212;6.788;2023-11-21T11:08:02;11.10;99.90
48604;DHT22;32708;51.212;6.788;2023-11-21T11:10:32;11.20;99.90
48604;DHT22;32708;51.212;6.788;2023-11-21T11:12:59;11.00;99.90
48604;DHT22;32708;51.212;6.788;2023-11-21T11:15:27;11.10;99.90
48604;DHT22;32708;51.212;6.788;2023-11-21T11:17:54;10.90;99.90
48604;DHT22;32708;51.212;6.788;2023-11-21T11:20:25;11.00;99.90
48604;DHT22;32708;51.212;6.788;2023-11-21T11:26:42;11.00;99.90
48604;DHT22;32708;51.212;6.788;2023-11-21T11:29:37;11.00;99.90
48604;DHT22;32708;51.212;6.788;2023-11-21T11:32:55;11.20;99.90
48604;DHT22;32708;51.212;6.788;2023-11-21T11:35:34;11.10;99.90
48604;DHT22;32708;51.212;6.788;2023-11-21T11:38:06;11.00;99.90
48604;DHT22;32708;51.212;6.788;2023-11-21T11:40:40;11.00;99.90
48604;DHT22;32708;51.212;6.788;2023-11-21T11:43:10;10.90;99.90
48604;DHT22;32708;51.212;6.788;2023-11-21T11:45:37;11.20;99.90
48604;DHT22;32708;51.212;6.788;2023-11-21T11:48:07;11.30;99.90
48604;DHT22;32708;51.212;6.788;2023-11-21T11:51:04;11.20;99.90
48604;DHT22;32708;51.212;6.788;2023-11-21T11:53:39;11.00;99.90
48604;DHT22;32708;51.212;6.788;2023-11-21T11:56:24;11.10;99.90
48604;DHT22;32708;51.212;6.788;2023-11-21T11:58:56;11.30;99.90
48604;DHT22;32708;51.212;6.788;2023-11-21T12:01:25;11.30;99.90
48604;DHT22;32708;51.212;6.788;2023-11-21T12:06:43;11.60;99.90
48604;DHT22;32708;51.212;6.788;2023-11-21T12:09:28;11.70;99.90
48604;DHT22;32708;51.212;6.788;2023-11-21T12:11:57;11.80;99.90
48604;DHT22;32708;51.212;6.788;2023-11-21T12:14:24;12.00;99.90
48604;DHT22;32708;51.212;6.788;2023-11-21T12:16:51;11.90;99.90
48604;DHT22;32708;51.212;6.788;2023-11-21T12:19:18;12.10;99.90
48604;DHT22;32708;51.212;6.788;2023-11-21T12:21:44;12.20;99.90
48604;DHT22;32708;51.212;6.788;2023-11-21T12:24:11;12.20;99.90
48604;DHT22;32708;51.212;6.788;2023-11-21T12:26:40;12.20;99.90
48604;DHT22;32708;51.212;6.788;2023-11-21T12:29:07;12.00;99.90
48604;DHT22;32708;51.212;6.788;2023-11-21T12:31:34;11.70;99.90
48604;DHT22;32708;51.212;6.788;2023-11-21T12:34:00;12.00;99.90
48604;DHT22;32708;51.212;6.788;2023-11-21T12:36:27;12.00;99.90
48604;DHT22;32708;51.212;6.788;2023-11-21T12:38:56;12.00;99.90
48604;DHT22;32708;51.212;6.788;2023-11-21T12:41:23;12.10;99.90
48604;DHT22;32708;51.212;6.788;2023-11-21T12:43:49;12.20;99.90
48604;DHT22;32708;51.212;6.788;2023-11-21T12:46:16;12.20;99.90
48604;DHT22;32708;51.212;6.788;2023-11-21T12:48:44;12.00;99.90
48604;DHT22;32708;51.212;6.788;2023-11-21T12:51:13;12.10;99.90
48604;DHT22;32708;51.212;6.788;2023-11-21T12:53:41;12.30;99.90
48604;DHT22;32708;51.212;6.788;2023-11-21T12:56:11;12.00;99.90
48604;DHT22;32708;51.212;6.788;2023-11-21T12:58:39;12.00;99.90
48604;DHT22;32708;51.212;6.788;2023-11-21T13:01:13;12.10;99.90
48604;DHT22;32708;51.212;6.788;2023-11-21T13:03:48;12.10;99.90
48604;DHT22;32708;51.212;6.788;2023-11-21T13:06:18;12.10;99.90
48604;DHT22;32708;51.212;6.788;2023-11-21T13:08:46;12.00;99.90
48604;DHT22;32708;51.212;6.788;2023-11-21T13:11:13;12.10;99.90
48604;DHT22;32708;51.212;6.788;2023-11-21T13:13:42;12.20;99.90
48604;DHT22;32708;51.212;6.788;2023-11-21T13:16:10;12.00;99.90
48604;DHT22;32708;51.212;6.788;2023-11-21T13:18:39;12.10;99.90
48604;DHT22;32708;51.212;6.788;2023-11-21T13:21:08;11.90;99.90
48604;DHT22;32708;51.212;6.788;2023-11-21T13:23:43;12.00;99.90
48604;DHT22;32708;51.212;6.788;2023-11-21T13:26:11;11.90;99.90
48604;DHT22;32708;51.212;6.788;2023-11-21T13:28:38;11.90;99.90
48604;DHT22;32708;51.212;6.788;2023-11-21T13:31:06;11.70;99.90
48604;DHT22;32708;51.212;6.788;2023-11-21T13:33:36;11.90;99.90
48604;DHT22;32708;51.212;6.788;2023-11-21T13:36:06;12.10;99.90
48604;DHT22;32708;51.212;6.788;2023-11-21T13:38:35;11.70;99.90
48604;DHT22;32708;51.212;6.788;2023-11-21T13:41:03;11.80;99.90
48604;DHT22;32708;51.212;6.788;2023-11-21T13:43:33;11.70;99.90
48604;DHT22;32708;51.212;6.788;2023-11-21T13:45:59;11.70;99.90
48604;DHT22;32708;51.212;6.788;2023-11-21T13:48:30;11.70;99.90
48604;DHT22;32708;51.212;6.788;2023-11-21T13:51:08;11.60;99.90
48604;DHT22;32708;51.212;6.788;2023-11-21T13:53:47;11.80;99.90
48604;DHT22;32708;51.212;6.788;2023-11-21T13:56:16;11.90;99.90
48604;DHT22;32708;51.212;6.788;2023-11-21T13:58:50;11.70;99.90
48604;DHT22;32708;51.212;6.788;2023-11-21T14:01:18;11.80;99.90
48604;DHT22;32708;51.212;6.788;2023-11-21T14:04:06;11.90;99.90
48604;DHT22;32708;51.212;6.788;2023-11-21T14:06:48;11.90;99.90
48604;DHT22;32708;51.212;6.788;2023-11-21T14:09:19;12.10;99.90
48604;DHT22;32708;51.212;6.788;2023-11-21T14:11:52;11.70;99.90
48604;DHT22;32708;51.212;6.788;2023-11-21T14:14:26;11.70;99.90
48604;DHT22;32708;51.212;6.788;2023-11-21T14:16:54;11.60;99.90
48604;DHT22;32708;51.212;6.788;2023-11-21T14:19:22;11.50;99.90
48604;DHT22;32708;51.212;6.788;2023-11-21T14:21:53;11.50;99.90
48604;DHT22;32708;51.212;6.788;2023-11-21T14:24:19;11.30;99.90
48604;DHT22;32708;51.212;6.788;2023-11-21T14:26:46;11.20;99.90
48604;DHT22;32708;51.212;6.788;2023-11-21T14:29:16;11.20;99.90
48604;DHT22;32708;51.212;6.788;2023-11-21T14:31:46;11.10;99.90
48604;DHT22;32708;51.212;6.788;2023-11-21T14:34:13;11.10;99.90
48604;DHT22;32708;51.212;6.788;2023-11-21T14:36:41;11.10;99.90
48604;DHT22;32708;51.212;6.788;2023-11-21T14:39:08;11.10;99.90
48604;DHT22;32708;51.212;6.788;2023-11-21T14:41:46;11.00;99.90
48604;DHT22;32708;51.212;6.788;2023-11-21T14:44:12;11.00;99.90
48604;DHT22;32708;51.212;6.788;2023-11-21T14:46:40;10.90;99.90
48604;DHT22;32708;51.212;6.788;2023-11-21T14:49:09;10.90;99.90
48604;DHT22;32708;51.212;6.788;2023-11-21T14:51:53;10.90;99.90
48604;DHT22;32708;51.212;6.788;2023-11-21T14:54:29;10.80;99.90
48604;DHT22;32708;51.212;6.788;2023-11-21T14:57:22;11.00;99.90
48604;DHT22;32708;51.212;6.788;2023-11-21T14:59:52;11.00;99.90
48604;DHT22;32708;51.212;6.788;2023-11-21T15:02:23;11.40;99.90
48604;DHT22;32708;51.212;6.788;2023-11-21T15:05:29;11.00;99.90
48604;DHT22;32708;51.212;6.788;2023-11-21T15:07:56;11.00;99.90
48604;DHT22;32708;51.212;6.788;2023-11-21T15:10:34;11.00;99.90
48604;DHT22;32708;51.212;6.788;2023-11-21T15:13:13;11.00;99.90
48604;DHT22;32708;51.212;6.788;2023-11-21T15:15:41;11.10;99.90
48604;DHT22;32708;51.212;6.788;2023-11-21T15:18:08;11.10;99.90
48604;DHT22;32708;51.212;6.788;2023-11-21T15:20:41;10.90;99.90
48604;DHT22;32708;51.212;6.788;2023-11-21T15:23:08;10.90;99.90
48604;DHT22;32708;51.212;6.788;2023-11-21T15:25:35;10.90;99.90
48604;DHT22;32708;51.212;6.788;2023-11-21T15:28:02;10.80;99.90
48604;DHT22;32708;51.212;6.788;2023-11-21T15:30:28;10.70;99.90
48604;DHT22;32708;51.212;6.788;2023-11-21T15:33:01;10.80;99.90
48604;DHT22;32708;51.212;6.788;2023-11-21T15:35:29;10.80;99.90
48604;DHT22;32708;51.212;6.788;2023-11-21T15:37:56;10.80;99.90
48604;DHT22;32708;51.212;6.788;2023-11-21T15:40:24;10.70;99.90
48604;DHT22;32708;51.212;6.788;2023-11-21T15:42:51;10.80;99.90
48604;DHT22;32708;51.212;6.788;2023-11-21T15:45:17;10.60;99.90
48604;DHT22;32708;51.212;6.788;2023-11-21T15:47:46;10.40;99.90
48604;DHT22;32708;51.212;6.788;2023-11-21T15:50:13;10.40;99.90